This is the latest recevied weather packets stored in our database for station/object F4JUT-10. If no packets are shown the sender has not sent any weather packets the latest 10 day(s).
| Time | Temp. | Humidity | Pressure | Rain* | Wind** | Luminosity | Snow |
|---|---|---|---|---|---|---|---|
| 1777551465 | 33.89° C | 21% | 1021 hPa | - | - | - | - |
| 1777550565 | 33.89° C | 19% | 1020.9 hPa | - | - | - | - |
| 1777549665 | 35° C | 19% | 1020.9 hPa | - | - | - | - |
| 1777548765 | 35.56° C | 21% | 1021 hPa | - | - | - | - |
| 1777547865 | 33.89° C | 23% | 1021.2 hPa | - | - | - | - |
| 1777546964 | 32.78° C | 26% | 1021.3 hPa | - | - | - | - |
| 1777546064 | 30.56° C | 29% | 1021.3 hPa | - | - | - | - |
| 1777545164 | 30° C | 29% | 1021.4 hPa | - | - | - | - |
| 1777544263 | 30° C | 29% | 1021.4 hPa | - | - | - | - |
| 1777543363 | 30° C | 29% | 1021.5 hPa | - | - | - | - |
| 1777542463 | 30° C | 29% | 1021.5 hPa | - | - | - | - |
| 1777541563 | 30.56° C | 29% | 1021.6 hPa | - | - | - | - |
| 1777540663 | 28.89° C | 31% | 1021.6 hPa | - | - | - | - |
| 1777539763 | 28.89° C | 31% | 1021.7 hPa | - | - | - | - |
| 1777538863 | 28.33° C | 32% | 1021.6 hPa | - | - | - | - |
| 1777537963 | 28.33° C | 32% | 1021.6 hPa | - | - | - | - |
| 1777537063 | 28.33° C | 31% | 1021.4 hPa | - | - | - | - |
| 1777536163 | 26.67° C | 35% | 1021.5 hPa | - | - | - | - |
| 1777535262 | 25° C | 38% | 1021.5 hPa | - | - | - | - |
| 1777534362 | 23.89° C | 40% | 1021.4 hPa | - | - | - | - |
| 1777533462 | 22.78° C | 44% | 1021.4 hPa | - | - | - | - |
| 1777532562 | 21.11° C | 49% | 1021.4 hPa | - | - | - | - |
| 1777531671 | 19.44° C | 54% | 1021.2 hPa | - | - | - | - |
| 1777530771 | 18.33° C | 58% | 1021.2 hPa | - | - | - | - |
| 1777529871 | 17.22° C | 65% | 1021.2 hPa | - | - | - | - |
* Rain since midnight (hover to see other rain measurements)
** Current wind speed in m/s (hover to see current wind gust speed)